Time;durP1;ratioP1;P1;durP2;ratioP2;P2;SDS_P1;SDS_P2;PMS_P1;PMS_P2;Temp;Humidity;BMP_temperature;BMP_pressure;BME280_temperature;BME280_humidity;BME280_pressure;Samples;Min_cycle;Max_cycle;Signal;HPM_P1;HPM_P2
2023/04/20 00:01:05;;;;;;;3.95;3.65;;;6.10;99.90;;;;;;6075973;23;21418;-70
2023/04/20 00:03:34;;;;;;;4.70;4.30;;;6.00;99.90;;;;;;6074254;23;20189;-70
2023/04/20 00:06:02;;;;;;;4.45;4.05;;;6.00;99.90;;;;;;6079484;23;20187;-70
2023/04/20 00:08:29;;;;;;;4.50;4.10;;;6.00;99.90;;;;;;6077338;23;20212;-70
2023/04/20 00:10:56;;;;;;;4.38;4.00;;;6.00;99.90;;;;;;6075806;23;20223;-70
2023/04/20 00:13:23;;;;;;;4.88;4.22;;;6.00;99.90;;;;;;6085455;23;20196;-69
2023/04/20 00:15:50;;;;;;;6.20;4.30;;;6.00;99.90;;;;;;6087531;23;20180;-70
2023/04/20 00:18:17;;;;;;;5.03;4.53;;;5.90;99.90;;;;;;6080301;23;20237;-70
2023/04/20 00:20:45;;;;;;;4.50;4.10;;;5.90;99.90;;;;;;6067596;23;20620;-70
2023/04/20 00:23:14;;;;;;;7.78;4.03;;;5.90;99.90;;;;;;6081644;23;20180;-70
2023/04/20 00:25:41;;;;;;;4.70;4.30;;;5.80;99.90;;;;;;6079481;23;20199;-70
2023/04/20 00:28:08;;;;;;;4.97;4.35;;;5.80;99.90;;;;;;6077451;23;20667;-70
2023/04/20 00:30:35;;;;;;;4.90;4.40;;;5.70;99.90;;;;;;6067989;23;20299;-70
2023/04/20 00:33:02;;;;;;;4.65;4.25;;;5.70;99.90;;;;;;6067138;23;20184;-70
2023/04/20 00:35:29;;;;;;;4.60;4.18;;;5.70;99.90;;;;;;6080028;23;20649;-70
2023/04/20 00:37:56;;;;;;;4.70;3.90;;;5.70;99.90;;;;;;6072785;23;20185;-70
2023/04/20 00:40:25;;;;;;;4.10;3.70;;;5.60;99.90;;;;;;6078967;23;20303;-70
2023/04/20 00:42:51;;;;;;;4.78;4.30;;;5.60;99.90;;;;;;6083363;23;20235;-70
2023/04/20 00:45:21;;;;;;;4.80;4.40;;;5.60;99.90;;;;;;6084302;23;20184;-70
2023/04/20 00:47:47;;;;;;;5.13;4.30;;;5.50;99.90;;;;;;6068501;23;20243;-70
2023/04/20 00:50:15;;;;;;;5.07;4.30;;;5.50;99.90;;;;;;6082034;23;20279;-70
2023/04/20 00:52:42;;;;;;;5.03;4.63;;;5.50;99.90;;;;;;6072600;23;20583;-69
2023/04/20 00:55:10;;;;;;;5.78;5.28;;;5.50;99.90;;;;;;6081456;23;20180;-70
2023/04/20 00:57:38;;;;;;;5.13;4.32;;;5.50;99.90;;;;;;6077212;23;20193;-69
2023/04/20 01:00:07;;;;;;;5.40;4.78;;;5.50;99.90;;;;;;6081395;23;20185;-70
2023/04/20 01:02:34;;;;;;;4.90;4.47;;;5.40;99.90;;;;;;6076248;23;20189;-70
2023/04/20 01:05:01;;;;;;;5.10;4.55;;;5.40;99.90;;;;;;6086785;23;20244;-70
2023/04/20 01:07:28;;;;;;;5.07;4.57;;;5.40;99.90;;;;;;6071739;23;20226;-69
2023/04/20 01:09:55;;;;;;;4.95;4.30;;;5.30;99.90;;;;;;6082600;23;20546;-70
2023/04/20 01:12:23;;;;;;;5.70;4.72;;;5.40;99.90;;;;;;6073114;23;20284;-69
2023/04/20 01:14:51;;;;;;;6.22;4.47;;;5.40;99.90;;;;;;6075976;23;20246;-70
2023/04/20 01:17:19;;;;;;;4.90;4.50;;;5.30;99.90;;;;;;6064320;23;20184;-70
2023/04/20 01:19:46;;;;;;;5.05;4.60;;;5.30;99.90;;;;;;6080950;23;20184;-69
2023/04/20 01:22:17;;;;;;;5.20;4.70;;;5.30;99.90;;;;;;6080689;23;20203;-70
2023/04/20 01:24:44;;;;;;;4.57;4.18;;;5.20;99.90;;;;;;6077948;23;20649;-70
2023/04/20 01:27:12;;;;;;;5.03;4.63;;;5.30;99.90;;;;;;6062240;23;20195;-70
2023/04/20 01:29:40;;;;;;;4.68;4.28;;;5.30;99.90;;;;;;6064362;23;20276;-69
2023/04/20 01:32:07;;;;;;;5.47;4.70;;;5.30;99.90;;;;;;6067516;23;20556;-70
2023/04/20 01:34:34;;;;;;;7.07;5.10;;;5.20;99.90;;;;;;6069470;23;20242;-70
2023/04/20 01:37:01;;;;;;;5.20;4.60;;;5.20;99.90;;;;;;6072861;23;20189;-70
2023/04/20 01:39:30;;;;;;;5.45;4.75;;;5.20;99.90;;;;;;6083200;23;20193;-69
2023/04/20 01:41:57;;;;;;;4.80;4.40;;;5.20;99.90;;;;;;6076198;23;20205;-70
2023/04/20 01:44:24;;;;;;;5.18;4.63;;;5.20;99.90;;;;;;6072791;23;20195;-70
2023/04/20 01:46:51;;;;;;;5.22;4.70;;;5.10;99.90;;;;;;6078862;23;20548;-70
2023/04/20 01:49:18;;;;;;;4.72;4.32;;;5.10;99.90;;;;;;6077703;23;20215;-70
2023/04/20 01:51:45;;;;;;;5.15;4.65;;;4.80;99.90;;;;;;6074019;23;20213;-69
2023/04/20 01:54:12;;;;;;;6.60;4.90;;;5.10;99.90;;;;;;6069144;23;20637;-70
2023/04/20 01:56:40;;;;;;;5.20;4.70;;;5.10;99.90;;;;;;6075917;23;20242;-70
2023/04/20 01:59:07;;;;;;;5.60;4.90;;;5.10;99.90;;;;;;6075444;23;20184;-70
2023/04/20 02:01:34;;;;;;;4.75;4.35;;;5.00;99.90;;;;;;6074655;23;20215;-69
2023/04/20 02:04:01;;;;;;;5.47;4.55;;;5.00;99.90;;;;;;6070999;23;20246;-70
2023/04/20 02:06:28;;;;;;;5.13;4.72;;;5.00;99.90;;;;;;6077222;23;20263;-69
2023/04/20 02:08:55;;;;;;;5.10;4.60;;;5.00;99.90;;;;;;6072808;23;20766;-70
2023/04/20 02:11:22;;;;;;;5.47;4.45;;;5.00;99.90;;;;;;6074177;23;20208;-70
2023/04/20 02:13:51;;;;;;;6.00;5.00;;;5.00;99.90;;;;;;6075563;23;20531;-70
2023/04/20 02:16:18;;;;;;;5.32;4.82;;;4.90;99.90;;;;;;6074529;23;20584;-70
2023/04/20 02:18:46;;;;;;;5.30;4.80;;;4.90;99.90;;;;;;6076087;23;20188;-69
2023/04/20 02:21:13;;;;;;;7.47;5.90;;;4.90;99.90;;;;;;6071092;23;20318;-69
2023/04/20 02:23:40;;;;;;;5.32;4.82;;;4.90;99.90;;;;;;6070175;23;20185;-69
2023/04/20 02:26:07;;;;;;;5.25;4.75;;;4.80;99.90;;;;;;6074187;23;20262;-69
2023/04/20 02:28:34;;;;;;;5.35;4.95;;;4.80;99.90;;;;;;6082793;23;20237;-69
2023/04/20 02:31:03;;;;;;;5.40;5.00;;;4.70;99.90;;;;;;6078897;23;20220;-69
2023/04/20 02:33:30;;;;;;;5.05;4.60;;;4.70;99.90;;;;;;6081427;23;20180;-69
2023/04/20 02:35:57;;;;;;;5.57;5.10;;;4.70;99.90;;;;;;6078553;23;20215;-70
2023/04/20 02:38:24;;;;;;;5.47;4.97;;;4.70;99.90;;;;;;6074739;23;20328;-69
2023/04/20 02:40:51;;;;;;;5.85;5.35;;;4.60;99.90;;;;;;6078508;23;20266;-69
2023/04/20 02:43:19;;;;;;;5.63;4.80;;;4.60;99.90;;;;;;6078834;23;20259;-70
2023/04/20 02:45:46;;;;;;;6.20;5.63;;;4.60;99.90;;;;;;6074495;23;20189;-69
2023/04/20 02:48:14;;;;;;;5.80;5.30;;;4.50;99.90;;;;;;6074971;23;20269;-70
2023/04/20 02:50:41;;;;;;;5.35;4.85;;;4.50;99.90;;;;;;6084195;23;20327;-69
2023/04/20 02:53:08;;;;;;;5.97;5.35;;;4.50;99.90;;;;;;6085946;23;20270;-70
2023/04/20 02:55:36;;;;;;;5.88;5.38;;;4.50;99.90;;;;;;6075653;23;20545;-70
2023/04/20 02:58:03;;;;;;;6.65;5.35;;;4.50;99.90;;;;;;6071625;23;20248;-69
2023/04/20 03:00:30;;;;;;;5.38;4.97;;;4.50;99.90;;;;;;6083325;23;20255;-69
2023/04/20 03:02:57;;;;;;;6.85;5.15;;;4.40;99.90;;;;;;6077016;23;20263;-69
2023/04/20 03:05:26;;;;;;;5.60;5.10;;;4.40;99.90;;;;;;6081127;23;20267;-69
2023/04/20 03:07:53;;;;;;;6.68;5.38;;;4.40;99.90;;;;;;6080519;23;20647;-70
2023/04/20 03:10:19;;;;;;;5.32;4.93;;;4.30;99.90;;;;;;6084986;23;20204;-69
2023/04/20 03:12:47;;;;;;;6.30;5.70;;;4.40;99.90;;;;;;6070729;23;20234;-69
2023/04/20 03:15:14;;;;;;;5.32;4.85;;;4.40;99.90;;;;;;6075392;23;20184;-69
2023/04/20 03:17:41;;;;;;;6.85;5.50;;;4.30;99.90;;;;;;6078890;23;20191;-70
2023/04/20 03:20:10;;;;;;;6.25;5.65;;;4.30;99.90;;;;;;6081716;23;20208;-69
2023/04/20 03:22:38;;;;;;;6.28;5.28;;;4.30;99.90;;;;;;6087007;23;20267;-69
2023/04/20 03:25:06;;;;;;;5.75;4.72;;;4.30;99.90;;;;;;6081913;23;20274;-70
2023/04/20 03:27:33;;;;;;;6.50;5.35;;;4.20;99.90;;;;;;6072817;23;20200;-69
2023/04/20 03:30:00;;;;;;;7.45;5.88;;;4.10;99.90;;;;;;6076982;23;20214;-69
2023/04/20 03:32:27;;;;;;;8.70;5.85;;;4.00;99.90;;;;;;6082808;23;20214;-69
2023/04/20 03:34:55;;;;;;;6.30;5.80;;;4.00;99.90;;;;;;6075405;23;20185;-69
2023/04/20 03:37:22;;;;;;;6.20;5.70;;;3.90;99.90;;;;;;6084728;23;20649;-69
2023/04/20 03:39:50;;;;;;;6.50;5.90;;;3.90;99.90;;;;;;6069596;23;20189;-69
2023/04/20 03:42:18;;;;;;;6.50;5.90;;;3.90;99.90;;;;;;6075982;23;20675;-69
2023/04/20 03:44:45;;;;;;;6.53;5.90;;;3.90;99.90;;;;;;6070948;23;20195;-70
2023/04/20 03:47:12;;;;;;;6.70;6.10;;;3.90;99.90;;;;;;6079436;23;21423;-69
2023/04/20 03:49:39;;;;;;;5.63;5.13;;;3.90;99.90;;;;;;6075214;23;20208;-70
2023/04/20 03:52:06;;;;;;;5.95;5.45;;;3.90;99.90;;;;;;6076831;23;20215;-69
2023/04/20 03:54:33;;;;;;;5.72;5.10;;;3.90;99.90;;;;;;6075442;23;20316;-69
2023/04/20 03:57:02;;;;;;;6.30;5.80;;;3.90;99.90;;;;;;6072665;23;20206;-69
2023/04/20 03:59:29;;;;;;;6.78;6.07;;;3.90;99.90;;;;;;6067378;23;20227;-69
2023/04/20 04:01:57;;;;;;;6.25;5.75;;;3.90;99.90;;;;;;6069005;23;20327;-69
2023/04/20 04:04:24;;;;;;;7.18;6.47;;;3.90;99.90;;;;;;6081045;23;20694;-69
2023/04/20 04:06:52;;;;;;;6.20;5.60;;;3.90;99.90;;;;;;6082232;23;20200;-69
2023/04/20 04:09:19;;;;;;;6.95;6.25;;;3.80;99.90;;;;;;6067920;23;20299;-69
2023/04/20 04:11:46;;;;;;;7.00;6.32;;;3.80;99.90;;;;;;6088632;23;20283;-69
2023/04/20 04:14:14;;;;;;;6.30;5.70;;;3.80;99.90;;;;;;6076822;23;20230;-69
2023/04/20 04:16:41;;;;;;;7.47;6.78;;;3.80;99.90;;;;;;6079611;23;20202;-70
2023/04/20 04:19:08;;;;;;;7.15;6.45;;;3.80;99.90;;;;;;6083636;23;20267;-69
2023/04/20 04:21:35;;;;;;;7.22;6.53;;;3.70;99.90;;;;;;6088185;23;20238;-70
2023/04/20 04:24:03;;;;;;;6.70;6.00;;;3.80;99.90;;;;;;6089639;23;20246;-70
2023/04/20 04:26:30;;;;;;;7.10;6.40;;;3.70;99.90;;;;;;6069779;23;20191;-70
2023/04/20 04:28:57;;;;;;;6.65;6.03;;;3.70;99.90;;;;;;6075220;23;20215;-70
2023/04/20 04:31:27;;;;;;;7.38;6.60;;;3.70;99.90;;;;;;6063532;23;20567;-71
2023/04/20 04:33:54;;;;;;;7.40;6.70;;;3.80;99.90;;;;;;6089244;23;20192;-71
2023/04/20 04:36:23;;;;;;;7.03;6.32;;;3.70;99.90;;;;;;6088376;23;20181;-72
2023/04/20 04:38:50;;;;;;;6.68;6.07;;;3.80;99.90;;;;;;6084224;23;20533;-71
2023/04/20 04:41:17;;;;;;;7.15;6.55;;;3.70;99.90;;;;;;6089277;23;20212;-70
2023/04/20 04:43:44;;;;;;;6.40;5.80;;;3.70;99.90;;;;;;6074051;23;20683;-70
2023/04/20 04:46:13;;;;;;;7.60;6.80;;;3.70;99.90;;;;;;6073477;23;20187;-71
2023/04/20 04:48:42;;;;;;;12.45;10.23;;;3.80;99.90;;;;;;6074070;23;20542;-69
2023/04/20 04:51:09;;;;;;;8.98;8.07;;;3.70;99.90;;;;;;6078870;23;20213;-69
2023/04/20 04:53:36;;;;;;;9.07;8.23;;;3.80;99.90;;;;;;6068601;23;20192;-71
2023/04/20 04:56:05;;;;;;;8.60;7.90;;;3.80;99.90;;;;;;6060643;23;20292;-69
2023/04/20 04:58:32;;;;;;;9.95;8.95;;;3.80;99.90;;;;;;6080374;23;20244;-69
2023/04/20 05:00:59;;;;;;;22.58;17.10;;;3.80;99.90;;;;;;6083145;23;20220;-68
2023/04/20 05:03:27;;;;;;;31.77;22.52;;;3.90;99.90;;;;;;6066784;23;20281;-69
2023/04/20 05:05:55;;;;;;;21.73;17.30;;;3.90;99.90;;;;;;6076334;23;20600;-68
2023/04/20 05:08:23;;;;;;;24.23;15.13;;;3.90;99.90;;;;;;6075372;23;20188;-86
2023/04/20 05:10:50;;;;;;;17.75;13.95;;;4.00;99.90;;;;;;6083894;23;20222;-68
2023/04/20 05:13:17;;;;;;;18.92;14.77;;;4.00;99.90;;;;;;6081666;23;20208;-68
2023/04/20 05:15:44;;;;;;;18.52;14.10;;;4.10;99.90;;;;;;6072356;23;20189;-68
2023/04/20 05:18:11;;;;;;;11.23;9.70;;;4.10;99.90;;;;;;6064035;23;20199;-68
2023/04/20 05:20:38;;;;;;;9.77;8.68;;;4.20;99.90;;;;;;6072041;23;20247;-69
2023/04/20 05:23:06;;;;;;;9.32;7.35;;;4.30;99.90;;;;;;6062904;23;20184;-69
2023/04/20 05:25:34;;;;;;;10.20;7.13;;;4.30;99.90;;;;;;6089002;23;20200;-68
2023/04/20 05:28:00;;;;;;;7.78;7.07;;;4.40;99.90;;;;;;6088518;23;20188;-69
2023/04/20 05:30:28;;;;;;;8.55;7.75;;;4.40;99.90;;;;;;6089878;23;20298;-68
2023/04/20 05:32:55;;;;;;;8.88;8.07;;;4.50;99.90;;;;;;6088362;23;20188;-70
2023/04/20 05:35:22;;;;;;;9.27;8.32;;;4.60;99.90;;;;;;6089317;23;20540;-69
2023/04/20 05:37:49;;;;;;;8.77;8.02;;;4.70;99.90;;;;;;6078494;23;20201;-70
2023/04/20 05:40:17;;;;;;;8.52;7.63;;;4.80;99.90;;;;;;6083674;23;20210;-69
2023/04/20 05:42:44;;;;;;;7.82;7.13;;;4.90;99.90;;;;;;6087016;23;20187;-69
2023/04/20 05:45:12;;;;;;;10.38;9.35;;;5.00;99.90;;;;;;6089021;23;20184;-69
2023/04/20 05:47:39;;;;;;;12.93;11.00;;;5.10;99.90;;;;;;6086971;23;20238;-70
2023/04/20 05:50:07;;;;;;;10.18;8.73;;;5.20;99.90;;;;;;6072845;23;20680;-69
2023/04/20 05:52:34;;;;;;;8.38;7.57;;;5.30;99.90;;;;;;6088432;23;20627;-69
2023/04/20 05:55:02;;;;;;;10.55;9.52;;;5.30;99.90;;;;;;6087513;23;20225;-69
2023/04/20 05:57:31;;;;;;;10.02;9.00;;;5.40;99.90;;;;;;6081090;23;20249;-70
2023/04/20 05:59:58;;;;;;;9.85;8.82;;;5.50;99.90;;;;;;6088677;23;20204;-69
2023/04/20 06:02:25;;;;;;;9.00;8.10;;;5.50;99.90;;;;;;6085621;23;20720;-69
2023/04/20 06:04:52;;;;;;;10.40;7.55;;;5.60;99.90;;;;;;6088641;23;20189;-69
2023/04/20 06:07:19;;;;;;;8.40;7.60;;;5.60;99.90;;;;;;6086518;23;20191;-69
2023/04/20 06:09:46;;;;;;;8.43;7.63;;;5.70;99.90;;;;;;6088340;23;20240;-69
2023/04/20 06:12:13;;;;;;;8.05;7.25;;;5.80;99.90;;;;;;6072723;23;20227;-69
2023/04/20 06:14:42;;;;;;;7.75;6.90;;;5.90;99.90;;;;;;6085654;23;20370;-69
2023/04/20 06:17:09;;;;;;;7.10;6.50;;;6.00;99.90;;;;;;6065124;23;20224;-69
2023/04/20 06:19:36;;;;;;;7.75;7.05;;;6.10;99.90;;;;;;6060350;23;20280;-69
2023/04/20 06:22:06;;;;;;;7.68;6.97;;;6.20;99.90;;;;;;6060885;23;20316;-69
2023/04/20 06:24:34;;;;;;;7.13;6.53;;;6.30;99.90;;;;;;6076417;23;20537;-69
2023/04/20 06:27:01;;;;;;;8.00;7.20;;;6.30;99.90;;;;;;6089646;23;20190;-69
2023/04/20 06:29:28;;;;;;;8.60;7.63;;;6.40;99.90;;;;;;6074081;23;20290;-69
2023/04/20 06:31:57;;;;;;;10.75;7.78;;;6.40;99.90;;;;;;6089026;23;20208;-69
2023/04/20 06:34:24;;;;;;;8.52;7.00;;;6.50;99.90;;;;;;6077546;23;20603;-69
2023/04/20 06:36:51;;;;;;;8.00;6.90;;;6.60;99.90;;;;;;6075849;23;20185;-70
2023/04/20 06:39:18;;;;;;;7.15;6.55;;;6.70;99.90;;;;;;6072610;23;20619;-69
2023/04/20 06:41:45;;;;;;;7.20;6.53;;;6.70;99.90;;;;;;6087812;23;20644;-69
2023/04/20 06:44:12;;;;;;;7.78;6.97;;;6.90;99.90;;;;;;6089107;23;20263;-69
2023/04/20 06:46:40;;;;;;;7.10;6.40;;;6.90;99.90;;;;;;6069087;23;20675;-69
2023/04/20 06:49:08;;;;;;;7.20;6.50;;;7.10;99.90;;;;;;6078968;23;20213;-69
2023/04/20 06:51:35;;;;;;;7.57;6.80;;;7.20;99.90;;;;;;6086846;23;20188;-69
2023/04/20 06:54:03;;;;;;;6.90;6.20;;;7.40;99.90;;;;;;6089013;23;20880;-69
2023/04/20 06:56:29;;;;;;;6.93;6.30;;;7.60;99.90;;;;;;6087241;23;20547;-69
2023/04/20 06:58:56;;;;;;;7.68;6.88;;;7.90;99.90;;;;;;6089517;23;20191;-69
2023/04/20 07:01:24;;;;;;;7.28;6.57;;;8.30;99.90;;;;;;6086823;23;20231;-69
2023/04/20 07:03:51;;;;;;;7.82;7.13;;;8.70;99.90;;;;;;6084047;23;20262;-69
2023/04/20 07:06:19;;;;;;;10.15;9.10;;;9.20;99.90;;;;;;6089016;23;20193;-70
2023/04/20 07:08:46;;;;;;;7.00;6.40;;;9.70;99.90;;;;;;6073051;23;20196;-69
2023/04/20 07:11:13;;;;;;;8.70;6.95;;;10.30;99.90;;;;;;6082902;23;21005;-69
2023/04/20 07:13:40;;;;;;;7.43;6.57;;;10.70;99.90;;;;;;6087186;23;20185;-69
2023/04/20 07:16:08;;;;;;;6.45;5.85;;;11.10;99.90;;;;;;6087442;23;20185;-70
2023/04/20 07:18:36;;;;;;;7.22;6.53;;;11.30;99.90;;;;;;6085447;23;20188;-69
2023/04/20 07:21:03;;;;;;;7.27;6.57;;;11.40;99.90;;;;;;6068652;23;20739;-70
2023/04/20 07:23:32;;;;;;;6.38;5.93;;;11.60;99.90;;;;;;6084714;23;20525;-69
2023/04/20 07:25:59;;;;;;;7.40;6.77;;;11.90;99.90;;;;;;6077064;23;20185;-69
2023/04/20 07:28:26;;;;;;;7.13;6.53;;;12.10;99.90;;;;;;6085494;23;21010;-69
2023/04/20 07:30:53;;;;;;;7.17;6.47;;;12.30;99.90;;;;;;6078798;23;21014;-70
2023/04/20 07:33:20;;;;;;;6.87;6.17;;;12.50;99.90;;;;;;6087181;23;20441;-69
2023/04/20 07:35:47;;;;;;;6.57;6.07;;;12.60;99.90;;;;;;6086681;23;20590;-70
2023/04/20 07:38:15;;;;;;;7.33;6.47;;;12.50;99.90;;;;;;6090160;23;20914;-69
2023/04/20 07:40:44;;;;;;;8.07;7.47;;;12.40;99.90;;;;;;6087593;23;20467;-69
2023/04/20 07:43:11;;;;;;;10.33;9.53;;;12.40;99.90;;;;;;6071357;23;20957;-69
2023/04/20 07:45:40;;;;;;;7.50;6.80;;;12.40;99.90;;;;;;6087021;23;20449;-70
2023/04/20 07:48:08;;;;;;;7.67;6.97;;;12.40;99.90;;;;;;6065190;23;20424;-69
2023/04/20 07:50:35;;;;;;;8.07;7.37;;;12.30;99.90;;;;;;6085663;23;20475;-69
2023/04/20 07:53:02;;;;;;;7.55;6.85;;;12.20;99.90;;;;;;6085893;23;20424;-69
2023/04/20 07:55:29;;;;;;;7.95;7.15;;;11.60;99.90;;;;;;6087188;23;20269;-69
2023/04/20 07:57:57;;;;;;;7.97;7.22;;;11.30;99.90;;;;;;6088992;23;20588;-69
2023/04/20 08:00:25;;;;;;;7.80;7.20;;;11.50;99.90;;;;;;6078368;23;20291;-70
2023/04/20 08:02:52;;;;;;;7.47;6.88;;;11.80;99.90;;;;;;6071173;23;20188;-69
2023/04/20 08:05:19;;;;;;;7.60;6.95;;;11.80;99.90;;;;;;6087685;23;20199;-70
2023/04/20 08:07:47;;;;;;;7.68;6.97;;;11.60;99.90;;;;;;6087855;23;20583;-70
2023/04/20 08:10:13;;;;;;;8.07;7.38;;;11.40;99.90;;;;;;6083135;23;20220;-69
2023/04/20 08:12:40;;;;;;;7.57;6.97;;;11.20;99.90;;;;;;6081148;23;20188;-70
2023/04/20 08:15:10;;;;;;;7.60;7.00;;;11.20;99.90;;;;;;6089735;23;20226;-70
2023/04/20 08:17:37;;;;;;;7.43;6.78;;;11.30;99.90;;;;;;6073703;23;20188;-70
2023/04/20 08:20:05;;;;;;;8.27;7.47;;;11.30;99.90;;;;;;6087865;23;20243;-70
2023/04/20 08:22:33;;;;;;;8.52;7.72;;;11.00;99.90;;;;;;6087421;23;20188;-70
2023/04/20 08:25:00;;;;;;;7.95;7.22;;;10.80;99.90;;;;;;6087454;23;20192;-70
2023/04/20 08:27:28;;;;;;;7.25;6.65;;;10.80;99.90;;;;;;6082926;23;20247;-68
2023/04/20 08:29:55;;;;;;;7.80;7.10;;;10.80;99.90;;;;;;6078983;23;20216;-70
2023/04/20 08:32:25;;;;;;;8.27;7.57;;;10.60;99.90;;;;;;6085332;23;20190;-70
2023/04/20 08:34:52;;;;;;;9.00;8.00;;;10.50;99.90;;;;;;6089343;23;20267;-70
2023/04/20 08:37:20;;;;;;;8.98;8.18;;;10.20;99.90;;;;;;6081584;23;20726;-70
2023/04/20 08:39:47;;;;;;;8.35;7.65;;;9.90;99.90;;;;;;6090073;23;20285;-69
2023/04/20 08:42:15;;;;;;;10.32;9.43;;;9.70;99.90;;;;;;6083156;23;20190;-70
2023/04/20 08:44:42;;;;;;;8.52;7.82;;;9.40;99.90;;;;;;6075168;23;20195;-70
2023/04/20 08:47:10;;;;;;;10.32;8.48;;;9.30;99.90;;;;;;6079228;23;20222;-70
2023/04/20 08:49:39;;;;;;;8.25;7.55;;;9.20;99.90;;;;;;6089879;23;20208;-70
2023/04/20 08:52:09;;;;;;;8.70;7.88;;;9.00;99.90;;;;;;6083848;23;20193;-70
2023/04/20 08:54:37;;;;;;;8.73;7.88;;;8.80;99.90;;;;;;6076421;23;20248;-70
2023/04/20 08:57:04;;;;;;;9.13;8.32;;;8.80;99.90;;;;;;6083459;23;20196;-70
2023/04/20 08:59:32;;;;;;;8.95;8.10;;;8.80;99.90;;;;;;6089591;23;20215;-70
2023/04/20 09:02:09;;;;;;;8.73;7.85;;;8.80;99.90;;;;;;6081925;23;20188;-69
2023/04/20 09:04:36;;;;;;;9.10;8.30;;;8.80;99.90;;;;;;6084365;23;20193;-70
2023/04/20 09:07:05;;;;;;;9.15;8.07;;;8.80;99.90;;;;;;6079493;23;20249;-70
2023/04/20 09:09:32;;;;;;;9.68;8.65;;;8.70;99.90;;;;;;6079399;23;20241;-69
2023/04/20 09:12:02;;;;;;;9.15;8.25;;;8.60;99.90;;;;;;6083351;23;20245;-70
2023/04/20 09:14:29;;;;;;;10.07;8.85;;;8.60;99.90;;;;;;6085695;23;20661;-69
2023/04/20 09:17:00;;;;;;;9.02;8.13;;;8.50;99.90;;;;;;6089397;23;20277;-69
2023/04/20 09:19:29;;;;;;;8.77;8.00;;;8.40;99.90;;;;;;6074535;23;20206;-69
2023/04/20 09:21:58;;;;;;;9.50;8.13;;;8.40;99.90;;;;;;6085584;23;20650;-69
2023/04/20 09:24:31;;;;;;;9.10;8.20;;;8.20;99.90;;;;;;6074408;23;20263;-68
2023/04/20 09:27:00;;;;;;;8.93;8.00;;;8.00;99.90;;;;;;6079373;23;20591;-69
2023/04/20 09:29:29;;;;;;;9.15;8.30;;;7.90;99.90;;;;;;6088177;23;20205;-68
2023/04/20 09:31:57;;;;;;;8.82;8.13;;;7.90;99.90;;;;;;6088613;23;20222;-68
2023/04/20 09:34:24;;;;;;;8.93;8.13;;;7.80;99.90;;;;;;6085628;23;20191;-69
2023/04/20 09:36:54;;;;;;;8.52;7.72;;;7.80;99.90;;;;;;6086437;23;20723;-69
2023/04/20 09:39:23;;;;;;;8.82;7.95;;;7.80;99.90;;;;;;6088860;23;20205;-69
2023/04/20 09:41:52;;;;;;;8.73;8.02;;;7.90;99.90;;;;;;6068439;23;20229;-68
2023/04/20 09:44:20;;;;;;;8.43;7.22;;;8.00;99.90;;;;;;6081117;23;20213;-69
2023/04/20 09:46:47;;;;;;;8.65;7.85;;;8.20;99.90;;;;;;6087602;23;20210;-69
2023/04/20 09:49:14;;;;;;;8.30;7.60;;;8.30;99.90;;;;;;6088060;23;20226;-69
2023/04/20 09:51:44;;;;;;;8.30;7.60;;;8.40;99.90;;;;;;6084711;23;20702;-69
2023/04/20 09:54:12;;;;;;;8.77;7.95;;;8.60;99.90;;;;;;6078647;23;20182;-69
2023/04/20 09:56:40;;;;;;;9.20;7.55;;;8.60;99.90;;;;;;6086282;23;20603;-69
2023/04/20 09:59:08;;;;;;;8.35;7.55;;;8.60;99.90;;;;;;6083032;23;20205;-69
2023/04/20 10:01:36;;;;;;;8.32;7.53;;;8.60;99.90;;;;;;6080123;23;20662;-69
2023/04/20 10:04:07;;;;;;;8.43;7.63;;;8.60;99.90;;;;;;6078353;23;20199;-69
2023/04/20 10:06:35;;;;;;;7.90;7.25;;;8.70;99.90;;;;;;6081562;23;20196;-69
2023/04/20 10:09:04;;;;;;;9.30;8.40;;;8.80;99.90;;;;;;6078679;23;20763;-69
2023/04/20 10:11:33;;;;;;;8.75;7.15;;;8.90;99.90;;;;;;6078098;23;20226;-69
2023/04/20 10:14:14;;;;;;;7.97;7.28;;;8.90;99.90;;;;;;6085421;23;20983;-69
2023/04/20 10:16:43;;;;;;;8.60;7.75;;;9.00;99.90;;;;;;6087705;23;20620;-69
2023/04/20 10:19:10;;;;;;;7.57;6.82;;;9.00;99.90;;;;;;6087262;23;20203;-69
2023/04/20 10:21:46;;;;;;;8.15;7.43;;;9.10;99.90;;;;;;6080733;23;20204;-69
2023/04/20 10:24:13;;;;;;;8.52;7.50;;;9.10;99.90;;;;;;6086538;23;20190;-69
2023/04/20 10:26:41;;;;;;;7.85;7.22;;;9.10;99.90;;;;;;6084136;23;20609;-69
2023/04/20 10:29:09;;;;;;;7.88;6.88;;;9.20;99.90;;;;;;6076811;23;20555;-69
2023/04/20 10:31:37;;;;;;;8.75;7.95;;;9.20;99.90;;;;;;6078544;23;20216;-69
2023/04/20 10:34:07;;;;;;;7.35;6.75;;;9.30;99.90;;;;;;6085529;23;20188;-69
2023/04/20 10:36:36;;;;;;;8.02;7.22;;;9.30;99.90;;;;;;6088526;23;20200;-69
2023/04/20 10:39:15;;;;;;;8.25;7.45;;;9.30;99.90;;;;;;6081909;23;20295;-69
2023/04/20 10:41:58;;;;;;;8.25;7.55;;;9.20;99.90;;;;;;6076500;23;20256;-69
2023/04/20 10:44:25;;;;;;;7.63;6.88;;;9.20;99.90;;;;;;6075814;23;20755;-69
2023/04/20 10:46:53;;;;;;;8.27;7.55;;;9.20;99.90;;;;;;6089565;23;20188;-69
2023/04/20 10:49:26;;;;;;;7.70;7.00;;;9.10;99.90;;;;;;6090428;23;20206;-69
2023/04/20 10:51:53;;;;;;;6.88;6.38;;;9.00;99.90;;;;;;6087566;23;20219;-69
2023/04/20 10:54:20;;;;;;;6.88;6.25;;;8.90;99.90;;;;;;6090896;23;20237;-69
2023/04/20 10:56:49;;;;;;;6.68;6.10;;;8.80;99.90;;;;;;6090794;23;20202;-69
2023/04/20 10:59:18;;;;;;;7.45;6.85;;;8.60;99.90;;;;;;6084726;23;20603;-69
2023/04/20 11:01:46;;;;;;;6.55;6.05;;;8.60;99.90;;;;;;6082997;23;20202;-69
2023/04/20 11:04:13;;;;;;;7.30;6.60;;;8.60;99.90;;;;;;6081304;23;20186;-69
2023/04/20 11:06:44;;;;;;;7.13;6.53;;;8.70;99.90;;;;;;6091570;23;20191;-69
2023/04/20 11:09:21;;;;;;;5.60;5.10;;;8.80;99.90;;;;;;6065789;23;20271;-69
2023/04/20 11:12:00;;;;;;;6.45;5.95;;;8.80;99.90;;;;;;6086205;23;20701;-69
2023/04/20 11:14:28;;;;;;;7.13;6.53;;;8.70;99.90;;;;;;6077357;23;20269;-69
2023/04/20 11:16:55;;;;;;;6.00;5.60;;;8.50;99.90;;;;;;6074289;23;20183;-70
2023/04/20 11:19:24;;;;;;;6.60;6.10;;;8.50;99.90;;;;;;6089660;23;20283;-69
2023/04/20 11:21:53;;;;;;;7.40;6.88;;;8.60;99.90;;;;;;6089505;23;20670;-70
2023/04/20 11:24:21;;;;;;;7.00;6.40;;;8.70;99.90;;;;;;6090567;23;20188;-69
2023/04/20 11:26:49;;;;;;;8.48;7.57;;;8.80;99.90;;;;;;6086136;23;20191;-70
2023/04/20 11:29:31;;;;;;;7.00;6.40;;;8.90;99.90;;;;;;6088417;23;20238;-70
2023/04/20 11:32:00;;;;;;;6.65;6.05;;;9.00;99.90;;;;;;6090049;23;20686;-71
2023/04/20 11:34:27;;;;;;;7.35;6.65;;;9.10;99.90;;;;;;6076266;23;20192;-69
2023/04/20 11:36:57;;;;;;;7.78;6.97;;;9.10;99.90;;;;;;6085660;23;20278;-70
2023/04/20 11:39:25;;;;;;;7.75;7.05;;;9.20;99.90;;;;;;6066013;23;20310;-69
2023/04/20 11:41:52;;;;;;;7.75;7.05;;;9.10;99.90;;;;;;6081225;23;20196;-69
2023/04/20 11:44:20;;;;;;;6.75;6.15;;;9.00;99.90;;;;;;6081933;23;20187;-70
2023/04/20 11:46:49;;;;;;;8.90;8.10;;;9.00;99.90;;;;;;6086036;23;20199;-70
2023/04/20 11:49:16;;;;;;;8.30;7.50;;;9.10;99.90;;;;;;6068393;23;20226;-70
2023/04/20 11:51:43;;;;;;;8.07;7.28;;;9.10;99.90;;;;;;6062382;23;20458;-70
2023/04/20 11:54:11;;;;;;;8.43;7.82;;;9.10;99.90;;;;;;6061242;23;20189;-70
2023/04/20 11:56:40;;;;;;;7.82;7.22;;;9.10;99.90;;;;;;6078842;23;20967;-70
2023/04/20 11:59:08;;;;;;;8.10;7.40;;;9.20;99.90;;;;;;6067173;23;20223;-69
2023/04/20 12:01:36;;;;;;;7.90;7.20;;;9.30;99.90;;;;;;6065257;23;20191;-70
2023/04/20 12:04:03;;;;;;;8.40;7.60;;;9.40;99.90;;;;;;6068106;23;20200;-70
2023/04/20 12:06:31;;;;;;;7.82;7.22;;;9.40;99.90;;;;;;6068693;23;20195;-69
2023/04/20 12:08:59;;;;;;;8.40;7.70;;;9.50;99.90;;;;;;6071442;23;20295;-69
2023/04/20 12:11:27;;;;;;;8.60;7.80;;;9.50;99.90;;;;;;6078646;23;20208;-69
2023/04/20 12:13:55;;;;;;;8.10;7.32;;;9.60;99.90;;;;;;6073356;23;20246;-71
2023/04/20 12:16:22;;;;;;;8.20;7.50;;;9.60;99.90;;;;;;6078136;23;20632;-69
2023/04/20 12:18:49;;;;;;;7.63;6.93;;;9.60;99.90;;;;;;6084400;23;20234;-70
2023/04/20 12:21:17;;;;;;;8.43;7.72;;;9.60;99.90;;;;;;6080405;23;20195;-84
2023/04/20 12:23:44;;;;;;;8.88;8.15;;;9.70;99.90;;;;;;6059949;23;20219;-71
2023/04/20 12:26:11;;;;;;;8.20;7.50;;;9.70;99.90;;;;;;6066028;23;20246;-74
2023/04/20 12:28:40;;;;;;;8.70;7.60;;;9.70;99.90;;;;;;6070270;23;20636;-73
2023/04/20 12:31:07;;;;;;;8.20;7.50;;;9.70;99.90;;;;;;6072082;23;20743;-73
2023/04/20 12:33:34;;;;;;;7.80;7.20;;;9.70;99.90;;;;;;6074141;23;20200;-72
2023/04/20 12:36:01;;;;;;;8.32;7.65;;;9.80;99.90;;;;;;6074139;23;20211;-73
2023/04/20 12:38:29;;;;;;;8.80;7.90;;;9.80;99.90;;;;;;6076041;23;20257;-73
2023/04/20 12:40:56;;;;;;;7.78;7.18;;;9.80;99.90;;;;;;6064165;23;20185;-72
2023/04/20 12:43:23;;;;;;;8.38;7.78;;;9.80;99.90;;;;;;6069837;23;20658;-72
2023/04/20 12:45:51;;;;;;;8.00;7.30;;;9.80;99.90;;;;;;6082122;23;20187;-71
2023/04/20 12:48:18;;;;;;;7.80;7.05;;;9.70;99.90;;;;;;6065578;23;20207;-72
2023/04/20 12:50:45;;;;;;;8.27;7.53;;;9.70;99.90;;;;;;6078768;23;20276;-72
2023/04/20 12:53:12;;;;;;;7.55;6.95;;;9.70;99.90;;;;;;6079756;23;20211;-72
2023/04/20 12:55:39;;;;;;;8.70;8.00;;;9.70;99.90;;;;;;6084734;23;20195;-72
2023/04/20 12:58:06;;;;;;;8.50;7.80;;;9.70;99.90;;;;;;6063652;23;20559;-73